sensor_id;sensor_type;location;lat;lon;timestamp;pressure;altitude;pressure_sealevel;temperature;humidity
20156;BME280;10238;49.556;10.956;2023-06-04T00:02:17;98424.50;;;13.31;74.61
20156;BME280;10238;49.556;10.956;2023-06-04T00:05:06;98415.50;;;13.24;75.09
20156;BME280;10238;49.556;10.956;2023-06-04T00:07:54;98408.50;;;13.15;75.25
20156;BME280;10238;49.556;10.956;2023-06-04T00:10:41;98411.53;;;13.03;75.99
20156;BME280;10238;49.556;10.956;2023-06-04T00:13:31;98411.34;;;12.97;76.80
20156;BME280;10238;49.556;10.956;2023-06-04T00:16:18;98405.50;;;12.85;77.47
20156;BME280;10238;49.556;10.956;2023-06-04T00:19:06;98403.00;;;12.84;77.84
20156;BME280;10238;49.556;10.956;2023-06-04T00:21:54;98400.69;;;12.73;78.43
20156;BME280;10238;49.556;10.956;2023-06-04T00:24:42;98399.69;;;12.74;78.67
20156;BME280;10238;49.556;10.956;2023-06-04T00:27:29;98399.38;;;12.69;79.07
20156;BME280;10238;49.556;10.956;2023-06-04T00:30:18;98392.69;;;12.65;79.28
20156;BME280;10238;49.556;10.956;2023-06-04T00:33:06;98393.72;;;12.56;80.01
20156;BME280;10238;49.556;10.956;2023-06-04T00:35:54;98393.53;;;12.49;80.07
20156;BME280;10238;49.556;10.956;2023-06-04T00:38:42;98397.53;;;12.45;80.59
20156;BME280;10238;49.556;10.956;2023-06-04T00:41:30;98394.38;;;12.50;80.84
20156;BME280;10238;49.556;10.956;2023-06-04T00:44:17;98397.84;;;12.50;80.61
20156;BME280;10238;49.556;10.956;2023-06-04T00:47:09;98401.69;;;12.48;80.45
20156;BME280;10238;49.556;10.956;2023-06-04T00:49:57;98406.16;;;12.47;80.21
20156;BME280;10238;49.556;10.956;2023-06-04T00:52:45;98403.34;;;12.49;80.06
20156;BME280;10238;49.556;10.956;2023-06-04T00:55:33;98410.00;;;12.45;79.90
20156;BME280;10238;49.556;10.956;2023-06-04T00:58:20;98411.69;;;12.38;79.97
20156;BME280;10238;49.556;10.956;2023-06-04T01:01:22;98409.81;;;12.30;80.35
20156;BME280;10238;49.556;10.956;2023-06-04T01:04:34;98418.31;;;12.26;80.45
20156;BME280;10238;49.556;10.956;2023-06-04T01:07:25;98412.28;;;12.16;80.99
20156;BME280;10238;49.556;10.956;2023-06-04T01:10:15;98412.28;;;12.16;81.42
20156;BME280;10238;49.556;10.956;2023-06-04T01:13:02;98414.28;;;12.14;81.74
20156;BME280;10238;49.556;10.956;2023-06-04T01:15:50;98417.25;;;12.11;81.85
20156;BME280;10238;49.556;10.956;2023-06-04T01:18:39;98422.59;;;12.03;81.92
20156;BME280;10238;49.556;10.956;2023-06-04T01:21:32;98419.56;;;11.90;82.81
20156;BME280;10238;49.556;10.956;2023-06-04T01:24:25;98422.81;;;11.76;84.24
20156;BME280;10238;49.556;10.956;2023-06-04T01:27:15;98423.59;;;11.68;85.07
20156;BME280;10238;49.556;10.956;2023-06-04T01:30:05;98425.09;;;11.63;85.87
20156;BME280;10238;49.556;10.956;2023-06-04T01:32:55;98420.75;;;11.62;86.27
20156;BME280;10238;49.556;10.956;2023-06-04T01:35:44;98422.38;;;11.55;86.76
20156;BME280;10238;49.556;10.956;2023-06-04T01:38:33;98418.22;;;11.60;86.99
20156;BME280;10238;49.556;10.956;2023-06-04T01:41:20;98421.19;;;11.57;86.45
20156;BME280;10238;49.556;10.956;2023-06-04T01:44:08;98419.34;;;11.50;87.25
20156;BME280;10238;49.556;10.956;2023-06-04T01:46:56;98427.28;;;11.42;87.56
20156;BME280;10238;49.556;10.956;2023-06-04T01:49:43;98428.56;;;11.38;87.96
20156;BME280;10238;49.556;10.956;2023-06-04T01:52:31;98437.88;;;11.34;88.60
20156;BME280;10238;49.556;10.956;2023-06-04T01:55:21;98439.50;;;11.27;89.49
20156;BME280;10238;49.556;10.956;2023-06-04T01:58:08;98435.50;;;11.23;89.92
20156;BME280;10238;49.556;10.956;2023-06-04T02:00:56;98441.59;;;11.15;90.27
20156;BME280;10238;49.556;10.956;2023-06-04T02:03:46;98439.09;;;11.14;90.37
20156;BME280;10238;49.556;10.956;2023-06-04T02:06:34;98442.22;;;11.09;90.77
20156;BME280;10238;49.556;10.956;2023-06-04T02:09:23;98440.00;;;11.05;90.95
20156;BME280;10238;49.556;10.956;2023-06-04T02:12:13;98434.69;;;11.05;91.19
20156;BME280;10238;49.556;10.956;2023-06-04T02:15:01;98437.34;;;11.05;90.97
20156;BME280;10238;49.556;10.956;2023-06-04T02:17:49;98441.78;;;10.96;91.13
20156;BME280;10238;49.556;10.956;2023-06-04T02:20:37;98443.09;;;10.92;91.57
20156;BME280;10238;49.556;10.956;2023-06-04T02:23:25;98444.59;;;10.94;91.95
20156;BME280;10238;49.556;10.956;2023-06-04T02:26:12;98445.66;;;10.84;92.21
20156;BME280;10238;49.556;10.956;2023-06-04T02:29:01;98450.16;;;10.83;92.21
20156;BME280;10238;49.556;10.956;2023-06-04T02:31:49;98441.03;;;10.86;92.10
20156;BME280;10238;49.556;10.956;2023-06-04T02:34:36;98450.84;;;10.85;92.27
20156;BME280;10238;49.556;10.956;2023-06-04T02:37:24;98451.44;;;10.79;92.27
20156;BME280;10238;49.556;10.956;2023-06-04T02:40:12;98443.94;;;10.75;92.30
20156;BME280;10238;49.556;10.956;2023-06-04T02:42:59;98443.03;;;10.66;93.28
20156;BME280;10238;49.556;10.956;2023-06-04T02:45:49;98445.34;;;10.61;93.73
20156;BME280;10238;49.556;10.956;2023-06-04T02:48:36;98445.34;;;10.61;94.27
20156;BME280;10238;49.556;10.956;2023-06-04T02:51:24;98445.00;;;10.64;93.93
20156;BME280;10238;49.556;10.956;2023-06-04T02:54:12;98449.34;;;10.65;94.01
20156;BME280;10238;49.556;10.956;2023-06-04T02:57:00;98450.94;;;10.58;93.86
20156;BME280;10238;49.556;10.956;2023-06-04T02:59:48;98445.53;;;10.50;94.21
20156;BME280;10238;49.556;10.956;2023-06-04T03:02:37;98448.19;;;10.50;94.50
20156;BME280;10238;49.556;10.956;2023-06-04T03:05:25;98447.66;;;10.47;94.57
20156;BME280;10238;49.556;10.956;2023-06-04T03:08:13;98451.47;;;10.44;94.75
20156;BME280;10238;49.556;10.956;2023-06-04T03:11:00;98457.09;;;10.41;94.72
20156;BME280;10238;49.556;10.956;2023-06-04T03:13:49;98461.63;;;10.31;95.39
20156;BME280;10238;49.556;10.956;2023-06-04T03:16:38;98447.34;;;10.32;96.17
20156;BME280;10238;49.556;10.956;2023-06-04T03:19:28;98457.97;;;10.32;96.20
20156;BME280;10238;49.556;10.956;2023-06-04T03:22:15;98465.59;;;10.27;95.93
20156;BME280;10238;49.556;10.956;2023-06-04T03:25:04;98462.63;;;10.30;96.59
20156;BME280;10238;49.556;10.956;2023-06-04T03:27:51;98462.94;;;10.27;96.14
20156;BME280;10238;49.556;10.956;2023-06-04T03:30:40;98465.59;;;10.27;95.95
20156;BME280;10238;49.556;10.956;2023-06-04T03:33:27;98469.28;;;10.17;96.50
20156;BME280;10238;49.556;10.956;2023-06-04T03:36:16;98461.47;;;10.15;96.65
20156;BME280;10238;49.556;10.956;2023-06-04T03:39:05;98474.28;;;10.20;96.57
20156;BME280;10238;49.556;10.956;2023-06-04T03:41:53;98477.09;;;10.18;96.11
20156;BME280;10238;49.556;10.956;2023-06-04T03:44:41;98474.59;;;10.17;96.31
20156;BME280;10238;49.556;10.956;2023-06-04T03:47:28;98467.06;;;10.12;96.04
20156;BME280;10238;49.556;10.956;2023-06-04T03:50:18;98474.66;;;10.07;96.36
20156;BME280;10238;49.556;10.956;2023-06-04T03:53:07;98476.47;;;10.07;96.96
20156;BME280;10238;49.556;10.956;2023-06-04T03:55:55;98476.88;;;10.02;96.95
20156;BME280;10238;49.556;10.956;2023-06-04T03:58:42;98481.34;;;10.02;97.58
20156;BME280;10238;49.556;10.956;2023-06-04T04:01:30;98479.84;;;9.99;97.70
20156;BME280;10238;49.556;10.956;2023-06-04T04:04:18;98476.09;;;9.92;98.01
20156;BME280;10238;49.556;10.956;2023-06-04T04:07:06;98472.47;;;9.93;98.59
20156;BME280;10238;49.556;10.956;2023-06-04T04:09:55;98471.31;;;9.96;98.35
20156;BME280;10238;49.556;10.956;2023-06-04T04:12:42;98467.66;;;10.06;97.66
20156;BME280;10238;49.556;10.956;2023-06-04T04:15:30;98465.69;;;10.08;97.32
20156;BME280;10238;49.556;10.956;2023-06-04T04:18:18;98472.53;;;10.11;96.25
20156;BME280;10238;49.556;10.956;2023-06-04T04:21:06;98471.00;;;10.08;96.33
20156;BME280;10238;49.556;10.956;2023-06-04T04:23:54;98478.13;;;10.08;96.13
20156;BME280;10238;49.556;10.956;2023-06-04T04:26:43;98476.59;;;10.05;95.55
20156;BME280;10238;49.556;10.956;2023-06-04T04:29:31;98479.66;;;10.10;95.62
20156;BME280;10238;49.556;10.956;2023-06-04T04:32:20;98478.00;;;10.09;95.30
20156;BME280;10238;49.556;10.956;2023-06-04T04:35:09;98474.03;;;10.13;94.95
20156;BME280;10238;49.556;10.956;2023-06-04T04:37:57;98478.88;;;10.27;94.47
20156;BME280;10238;49.556;10.956;2023-06-04T04:40:44;98478.56;;;10.30;93.87
20156;BME280;10238;49.556;10.956;2023-06-04T04:43:37;98475.63;;;10.33;93.32
20156;BME280;10238;49.556;10.956;2023-06-04T04:46:25;98475.84;;;10.40;92.55
20156;BME280;10238;49.556;10.956;2023-06-04T04:49:13;98486.16;;;10.43;91.83
20156;BME280;10238;49.556;10.956;2023-06-04T04:52:01;98483.94;;;10.38;91.45
20156;BME280;10238;49.556;10.956;2023-06-04T04:54:48;98486.00;;;10.44;91.15
20156;BME280;10238;49.556;10.956;2023-06-04T04:57:36;98484.56;;;10.50;90.69
20156;BME280;10238;49.556;10.956;2023-06-04T05:00:25;98485.81;;;10.55;90.80
20156;BME280;10238;49.556;10.956;2023-06-04T05:03:13;98490.53;;;10.61;90.17
20156;BME280;10238;49.556;10.956;2023-06-04T05:06:01;98492.94;;;10.72;89.58
20156;BME280;10238;49.556;10.956;2023-06-04T05:08:49;98490.97;;;10.74;89.11
20156;BME280;10238;49.556;10.956;2023-06-04T05:11:37;98502.81;;;10.80;89.31
20156;BME280;10238;49.556;10.956;2023-06-04T05:14:24;98505.31;;;10.81;89.12
20156;BME280;10238;49.556;10.956;2023-06-04T05:17:14;98508.03;;;10.89;89.01
20156;BME280;10238;49.556;10.956;2023-06-04T05:20:03;98505.91;;;10.93;88.36
20156;BME280;10238;49.556;10.956;2023-06-04T05:22:51;98513.44;;;10.98;91.55
20156;BME280;10238;49.556;10.956;2023-06-04T05:25:39;98514.81;;;11.02;89.86
20156;BME280;10238;49.556;10.956;2023-06-04T05:28:27;98510.38;;;11.10;87.57
20156;BME280;10238;49.556;10.956;2023-06-04T05:31:15;98514.94;;;11.18;86.51
20156;BME280;10238;49.556;10.956;2023-06-04T05:34:06;98517.69;;;11.26;86.25
20156;BME280;10238;49.556;10.956;2023-06-04T05:36:53;98522.88;;;11.35;85.60
20156;BME280;10238;49.556;10.956;2023-06-04T05:39:42;98524.16;;;11.49;90.15
20156;BME280;10238;49.556;10.956;2023-06-04T05:42:30;98522.53;;;11.56;84.16
20156;BME280;10238;49.556;10.956;2023-06-04T05:45:18;98523.97;;;11.68;83.33
20156;BME280;10238;49.556;10.956;2023-06-04T05:48:05;98523.53;;;11.80;82.59
20156;BME280;10238;49.556;10.956;2023-06-04T05:50:55;98515.78;;;11.95;82.92
20156;BME280;10238;49.556;10.956;2023-06-04T05:53:42;98521.56;;;12.16;84.14
20156;BME280;10238;49.556;10.956;2023-06-04T05:56:30;98508.66;;;12.37;84.69
20156;BME280;10238;49.556;10.956;2023-06-04T05:59:18;98516.69;;;12.53;80.86
20156;BME280;10238;49.556;10.956;2023-06-04T06:02:06;98513.72;;;12.72;80.34
20156;BME280;10238;49.556;10.956;2023-06-04T06:04:55;98510.06;;;12.97;80.58
20156;BME280;10238;49.556;10.956;2023-06-04T06:07:44;98514.78;;;13.19;79.78
20156;BME280;10238;49.556;10.956;2023-06-04T06:10:32;98514.09;;;13.41;79.25
20156;BME280;10238;49.556;10.956;2023-06-04T06:13:19;98511.38;;;13.73;77.54
20156;BME280;10238;49.556;10.956;2023-06-04T06:16:07;98516.66;;;13.97;76.38
20156;BME280;10238;49.556;10.956;2023-06-04T06:18:55;98523.94;;;14.19;76.11
20156;BME280;10238;49.556;10.956;2023-06-04T06:21:42;98519.78;;;14.55;74.98
20156;BME280;10238;49.556;10.956;2023-06-04T06:24:31;98517.63;;;14.81;73.08
20156;BME280;10238;49.556;10.956;2023-06-04T06:27:19;98518.16;;;14.99;72.75
20156;BME280;10238;49.556;10.956;2023-06-04T06:30:08;98521.19;;;15.42;72.27
20156;BME280;10238;49.556;10.956;2023-06-04T06:32:56;98517.97;;;15.83;70.10
20156;BME280;10238;49.556;10.956;2023-06-04T06:35:44;98518.69;;;16.21;69.31
20156;BME280;10238;49.556;10.956;2023-06-04T06:38:33;98515.44;;;16.54;68.12
20156;BME280;10238;49.556;10.956;2023-06-04T06:41:22;98517.41;;;16.81;67.55
20156;BME280;10238;49.556;10.956;2023-06-04T06:44:10;98513.34;;;17.27;67.00
20156;BME280;10238;49.556;10.956;2023-06-04T06:46:58;98516.72;;;17.57;65.38
20156;BME280;10238;49.556;10.956;2023-06-04T06:49:46;98519.63;;;17.90;63.61
20156;BME280;10238;49.556;10.956;2023-06-04T06:52:33;98506.72;;;18.40;63.15
20156;BME280;10238;49.556;10.956;2023-06-04T06:55:21;98520.53;;;18.71;61.30
20156;BME280;10238;49.556;10.956;2023-06-04T06:58:10;98515.25;;;19.10;60.14
20156;BME280;10238;49.556;10.956;2023-06-04T07:00:59;98516.13;;;18.57;60.01
20156;BME280;10238;49.556;10.956;2023-06-04T07:03:46;98518.50;;;18.86;62.02
20156;BME280;10238;49.556;10.956;2023-06-04T07:06:34;98518.22;;;19.55;60.25
20156;BME280;10238;49.556;10.956;2023-06-04T07:09:23;98514.03;;;19.98;58.89
20156;BME280;10238;49.556;10.956;2023-06-04T07:12:10;98509.41;;;20.37;57.32
20156;BME280;10238;49.556;10.956;2023-06-04T07:14:59;98511.41;;;20.61;57.70
20156;BME280;10238;49.556;10.956;2023-06-04T07:17:47;98500.63;;;20.99;54.60
20156;BME280;10238;49.556;10.956;2023-06-04T07:20:35;98505.84;;;21.32;55.30
20156;BME280;10238;49.556;10.956;2023-06-04T07:23:22;98506.16;;;21.66;53.89
20156;BME280;10238;49.556;10.956;2023-06-04T07:26:12;98507.88;;;21.36;55.32
20156;BME280;10238;49.556;10.956;2023-06-04T07:28:59;98499.91;;;21.66;55.58
20156;BME280;10238;49.556;10.956;2023-06-04T07:31:48;98508.25;;;22.13;54.51
20156;BME280;10238;49.556;10.956;2023-06-04T07:34:38;98501.50;;;22.58;52.81
20156;BME280;10238;49.556;10.956;2023-06-04T07:37:26;98500.72;;;22.87;52.02
20156;BME280;10238;49.556;10.956;2023-06-04T07:40:14;98502.56;;;23.05;51.56
20156;BME280;10238;49.556;10.956;2023-06-04T07:43:01;98504.81;;;23.38;50.24
20156;BME280;10238;49.556;10.956;2023-06-04T07:45:49;98492.81;;;23.45;50.93
20156;BME280;10238;49.556;10.956;2023-06-04T07:48:38;98494.59;;;23.63;48.94
20156;BME280;10238;49.556;10.956;2023-06-04T07:51:26;98494.16;;;23.89;48.38
20156;BME280;10238;49.556;10.956;2023-06-04T07:54:13;98491.44;;;23.89;48.51
20156;BME280;10238;49.556;10.956;2023-06-04T07:57:03;98497.72;;;24.01;50.13
20156;BME280;10238;49.556;10.956;2023-06-04T07:59:51;98491.44;;;23.89;50.76
20156;BME280;10238;49.556;10.956;2023-06-04T08:02:39;98483.81;;;24.60;48.82
20156;BME280;10238;49.556;10.956;2023-06-04T08:05:28;98492.06;;;24.14;47.27
20156;BME280;10238;49.556;10.956;2023-06-04T08:08:16;98488.91;;;24.45;49.05
20156;BME280;10238;49.556;10.956;2023-06-04T08:11:04;98487.19;;;24.90;46.66
20156;BME280;10238;49.556;10.956;2023-06-04T08:13:52;98479.72;;;25.13;44.90
20156;BME280;10238;49.556;10.956;2023-06-04T08:16:40;98485.41;;;23.87;43.02
20156;BME280;10238;49.556;10.956;2023-06-04T08:19:28;98479.03;;;24.90;47.93
20156;BME280;10238;49.556;10.956;2023-06-04T08:22:17;98480.97;;;25.84;45.30
20156;BME280;10238;49.556;10.956;2023-06-04T08:25:05;98485.16;;;26.24;44.43
20156;BME280;10238;49.556;10.956;2023-06-04T08:27:53;98473.94;;;26.42;44.70
20156;BME280;10238;49.556;10.956;2023-06-04T08:30:41;98478.09;;;26.66;43.64
20156;BME280;10238;49.556;10.956;2023-06-04T08:33:29;98477.09;;;26.72;43.67
20156;BME280;10238;49.556;10.956;2023-06-04T08:36:17;98471.66;;;26.99;43.82
20156;BME280;10238;49.556;10.956;2023-06-04T08:39:06;98472.25;;;27.27;43.25
20156;BME280;10238;49.556;10.956;2023-06-04T08:41:59;98472.91;;;27.40;43.04
20156;BME280;10238;49.556;10.956;2023-06-04T08:44:51;98480.09;;;27.51;42.35
20156;BME280;10238;49.556;10.956;2023-06-04T08:47:45;98480.50;;;27.64;42.67
20156;BME280;10238;49.556;10.956;2023-06-04T08:50:36;98474.00;;;27.70;42.18
20156;BME280;10238;49.556;10.956;2023-06-04T08:53:26;98475.59;;;27.98;41.91
20156;BME280;10238;49.556;10.956;2023-06-04T08:56:16;98464.88;;;28.33;40.82
20156;BME280;10238;49.556;10.956;2023-06-04T08:59:06;98459.56;;;28.58;40.64
20156;BME280;10238;49.556;10.956;2023-06-04T09:01:54;98469.75;;;28.26;39.10
20156;BME280;10238;49.556;10.956;2023-06-04T09:04:44;98468.91;;;27.84;38.91
20156;BME280;10238;49.556;10.956;2023-06-04T09:07:35;98474.44;;;26.39;37.46
20156;BME280;10238;49.556;10.956;2023-06-04T09:10:24;98474.63;;;26.54;40.32
20156;BME280;10238;49.556;10.956;2023-06-04T09:13:15;98480.09;;;27.51;41.20
20156;BME280;10238;49.556;10.956;2023-06-04T09:16:07;98477.44;;;27.87;43.30
20156;BME280;10238;49.556;10.956;2023-06-04T09:18:55;98462.41;;;28.83;41.06
20156;BME280;10238;49.556;10.956;2023-06-04T09:21:51;98468.56;;;29.50;39.40
20156;BME280;10238;49.556;10.956;2023-06-04T09:24:40;98466.16;;;29.64;39.12
20156;BME280;10238;49.556;10.956;2023-06-04T09:27:38;98471.88;;;29.52;39.13
20156;BME280;10238;49.556;10.956;2023-06-04T09:30:28;98470.22;;;29.51;39.79
20156;BME280;10238;49.556;10.956;2023-06-04T09:33:16;98459.25;;;29.96;39.28
20156;BME280;10238;49.556;10.956;2023-06-04T09:36:04;98468.56;;;30.30;37.02
20156;BME280;10238;49.556;10.956;2023-06-04T09:38:53;98463.59;;;30.42;36.05
20156;BME280;10238;49.556;10.956;2023-06-04T09:41:41;98459.28;;;29.61;39.11
20156;BME280;10238;49.556;10.956;2023-06-04T09:44:29;98456.78;;;30.00;35.40
20156;BME280;10238;49.556;10.956;2023-06-04T09:47:18;98457.09;;;29.88;37.70
20156;BME280;10238;49.556;10.956;2023-06-04T09:50:08;98462.47;;;30.48;37.48
20156;BME280;10238;49.556;10.956;2023-06-04T09:52:56;98450.25;;;30.89;37.01
20156;BME280;10238;49.556;10.956;2023-06-04T09:55:44;98444.69;;;30.94;37.19
20156;BME280;10238;49.556;10.956;2023-06-04T09:58:32;98444.06;;;31.12;35.75
20156;BME280;10238;49.556;10.956;2023-06-04T10:01:21;98433.31;;;31.16;35.04
20156;BME280;10238;49.556;10.956;2023-06-04T10:04:13;98442.50;;;30.28;33.90
20156;BME280;10238;49.556;10.956;2023-06-04T10:07:05;98447.22;;;29.77;32.42
20156;BME280;10238;49.556;10.956;2023-06-04T10:09:58;98450.50;;;29.74;31.59
20156;BME280;10238;49.556;10.956;2023-06-04T10:12:54;98436.66;;;30.44;33.52
20156;BME280;10238;49.556;10.956;2023-06-04T10:15:47;98444.13;;;31.02;34.28
20156;BME280;10238;49.556;10.956;2023-06-04T10:18:35;98431.34;;;31.22;34.02
20156;BME280;10238;49.556;10.956;2023-06-04T10:21:26;98431.06;;;31.28;34.85
20156;BME280;10238;49.556;10.956;2023-06-04T10:24:18;98431.31;;;31.27;35.07
20156;BME280;10238;49.556;10.956;2023-06-04T10:27:07;98436.06;;;31.55;33.96
20156;BME280;10238;49.556;10.956;2023-06-04T10:29:57;98438.78;;;31.60;33.82
20156;BME280;10238;49.556;10.956;2023-06-04T10:32:46;98425.56;;;31.62;33.36
20156;BME280;10238;49.556;10.956;2023-06-04T10:35:35;98426.66;;;31.66;34.29
20156;BME280;10238;49.556;10.956;2023-06-04T10:38:25;98419.75;;;31.35;33.58
20156;BME280;10238;49.556;10.956;2023-06-04T10:41:14;98425.06;;;31.55;34.14
20156;BME280;10238;49.556;10.956;2023-06-04T10:44:02;98421.78;;;31.86;32.88
20156;BME280;10238;49.556;10.956;2023-06-04T10:46:50;98424.97;;;31.98;32.97
20156;BME280;10238;49.556;10.956;2023-06-04T10:49:38;98422.53;;;32.20;34.22
20156;BME280;10238;49.556;10.956;2023-06-04T10:52:25;98425.16;;;32.30;33.21
20156;BME280;10238;49.556;10.956;2023-06-04T10:55:14;98423.47;;;32.11;33.86
20156;BME280;10238;49.556;10.956;2023-06-04T10:58:02;98426.91;;;32.21;33.33
20156;BME280;10238;49.556;10.956;2023-06-04T11:00:50;98416.81;;;30.77;28.78
20156;BME280;10238;49.556;10.956;2023-06-04T11:03:38;98420.31;;;31.32;34.29
20156;BME280;10238;49.556;10.956;2023-06-04T11:06:26;98420.84;;;32.01;33.07
20156;BME280;10238;49.556;10.956;2023-06-04T11:09:14;98411.56;;;32.44;33.04
20156;BME280;10238;49.556;10.956;2023-06-04T11:12:07;98420.81;;;32.53;31.42
20156;BME280;10238;49.556;10.956;2023-06-04T11:14:55;98412.28;;;32.73;32.72
20156;BME280;10238;49.556;10.956;2023-06-04T11:17:51;98402.81;;;32.79;32.71
20156;BME280;10238;49.556;10.956;2023-06-04T11:20:39;98402.97;;;32.69;31.97
20156;BME280;10238;49.556;10.956;2023-06-04T11:23:32;98396.72;;;32.82;30.96
20156;BME280;10238;49.556;10.956;2023-06-04T11:26:20;98407.47;;;33.02;30.94
20156;BME280;10238;49.556;10.956;2023-06-04T11:29:11;98403.63;;;33.03;31.17
20156;BME280;10238;49.556;10.956;2023-06-04T11:32:02;98396.63;;;32.92;29.85
20156;BME280;10238;49.556;10.956;2023-06-04T11:34:50;98392.00;;;33.06;31.42
20156;BME280;10238;49.556;10.956;2023-06-04T11:37:38;98397.38;;;33.16;31.56
20156;BME280;10238;49.556;10.956;2023-06-04T11:40:27;98389.41;;;33.15;29.88
20156;BME280;10238;49.556;10.956;2023-06-04T11:43:14;98393.91;;;33.24;30.51
20156;BME280;10238;49.556;10.956;2023-06-04T11:46:06;98391.09;;;33.29;30.05
20156;BME280;10238;49.556;10.956;2023-06-04T11:48:57;98391.09;;;33.29;30.58
20156;BME280;10238;49.556;10.956;2023-06-04T11:51:49;98378.94;;;33.30;30.48
20156;BME280;10238;49.556;10.956;2023-06-04T11:54:36;98403.53;;;32.24;29.95
20156;BME280;10238;49.556;10.956;2023-06-04T11:57:26;98387.19;;;32.56;26.73
20156;BME280;10238;49.556;10.956;2023-06-04T12:00:16;98386.72;;;33.09;31.46
20156;BME280;10238;49.556;10.956;2023-06-04T12:03:05;98395.28;;;33.27;30.19
20156;BME280;10238;49.556;10.956;2023-06-04T12:05:53;98382.94;;;33.56;31.88
20156;BME280;10238;49.556;10.956;2023-06-04T12:08:49;98376.84;;;33.73;31.02
20156;BME280;10238;49.556;10.956;2023-06-04T12:11:37;98370.25;;;33.87;31.47
20156;BME280;10238;49.556;10.956;2023-06-04T12:14:25;98376.19;;;33.94;30.81
20156;BME280;10238;49.556;10.956;2023-06-04T12:17:15;98367.19;;;33.89;30.03
20156;BME280;10238;49.556;10.956;2023-06-04T12:20:06;98366.09;;;33.58;28.97
20156;BME280;10238;49.556;10.956;2023-06-04T12:22:55;98370.50;;;33.59;28.77
20156;BME280;10238;49.556;10.956;2023-06-04T12:25:42;98365.75;;;33.78;29.72
20156;BME280;10238;49.556;10.956;2023-06-04T12:28:30;98361.41;;;33.58;29.34
20156;BME280;10238;49.556;10.956;2023-06-04T12:31:18;98376.13;;;33.67;28.68
20156;BME280;10238;49.556;10.956;2023-06-04T12:34:06;98372.47;;;33.72;28.73
20156;BME280;10238;49.556;10.956;2023-06-04T12:36:58;98368.19;;;33.79;28.84
20156;BME280;10238;49.556;10.956;2023-06-04T12:39:46;98359.03;;;33.97;30.16
20156;BME280;10238;49.556;10.956;2023-06-04T12:42:34;98357.41;;;34.10;30.35
20156;BME280;10238;49.556;10.956;2023-06-04T12:45:21;98356.53;;;33.82;28.53
20156;BME280;10238;49.556;10.956;2023-06-04T12:48:09;98356.19;;;34.02;31.02
20156;BME280;10238;49.556;10.956;2023-06-04T12:50:57;98354.34;;;34.11;29.43
20156;BME280;10238;49.556;10.956;2023-06-04T12:53:46;98354.75;;;34.18;30.30
20156;BME280;10238;49.556;10.956;2023-06-04T12:56:34;98351.59;;;34.38;30.54
20156;BME280;10238;49.556;10.956;2023-06-04T12:59:22;98353.19;;;34.66;31.20
20156;BME280;10238;49.556;10.956;2023-06-04T13:02:10;98341.84;;;34.54;27.81
20156;BME280;10238;49.556;10.956;2023-06-04T13:04:57;98347.50;;;33.95;30.53
20156;BME280;10238;49.556;10.956;2023-06-04T13:07:45;98354.75;;;34.18;31.08
20156;BME280;10238;49.556;10.956;2023-06-04T13:10:34;98340.16;;;34.45;28.57
20156;BME280;10238;49.556;10.956;2023-06-04T13:13:22;98336.34;;;34.54;29.93
20156;BME280;10238;49.556;10.956;2023-06-04T13:16:12;98333.91;;;34.39;29.26
20156;BME280;10238;49.556;10.956;2023-06-04T13:19:00;98335.69;;;33.76;25.41
20156;BME280;10238;49.556;10.956;2023-06-04T13:21:47;98334.44;;;33.82;29.94
20156;BME280;10238;49.556;10.956;2023-06-04T13:24:35;98335.75;;;32.28;26.45
20156;BME280;10238;49.556;10.956;2023-06-04T13:27:24;98348.69;;;31.52;28.74
20156;BME280;10238;49.556;10.956;2023-06-04T13:30:13;98351.06;;;31.92;30.33
20156;BME280;10238;49.556;10.956;2023-06-04T13:33:01;98351.44;;;31.80;27.59
20156;BME280;10238;49.556;10.956;2023-06-04T13:35:58;98336.59;;;32.52;29.05
20156;BME280;10238;49.556;10.956;2023-06-04T13:38:45;98339.97;;;32.44;28.65
20156;BME280;10238;49.556;10.956;2023-06-04T13:41:33;98329.47;;;32.88;29.21
20156;BME280;10238;49.556;10.956;2023-06-04T13:44:22;98334.44;;;31.73;26.71
20156;BME280;10238;49.556;10.956;2023-06-04T13:47:12;98335.47;;;31.54;32.39
20156;BME280;10238;49.556;10.956;2023-06-04T13:50:00;98327.75;;;31.56;28.01
20156;BME280;10238;49.556;10.956;2023-06-04T13:52:48;98311.34;;;33.33;33.12
20156;BME280;10238;49.556;10.956;2023-06-04T13:55:37;98312.00;;;34.16;32.13
20156;BME280;10238;49.556;10.956;2023-06-04T13:58:25;98315.47;;;34.48;29.18
20156;BME280;10238;49.556;10.956;2023-06-04T14:01:14;98306.56;;;34.51;30.63
20156;BME280;10238;49.556;10.956;2023-06-04T14:04:03;98315.44;;;34.62;29.21
20156;BME280;10238;49.556;10.956;2023-06-04T14:06:52;98324.47;;;34.54;28.89
20156;BME280;10238;49.556;10.956;2023-06-04T14:09:40;98315.75;;;34.60;30.44
20156;BME280;10238;49.556;10.956;2023-06-04T14:12:28;98308.75;;;34.76;29.31
20156;BME280;10238;49.556;10.956;2023-06-04T14:15:16;98306.94;;;33.50;25.55
20156;BME280;10238;49.556;10.956;2023-06-04T14:18:06;98306.47;;;34.16;31.97
20156;BME280;10238;49.556;10.956;2023-06-04T14:20:54;98308.72;;;34.54;31.08
20156;BME280;10238;49.556;10.956;2023-06-04T14:23:42;98307.22;;;34.21;28.07
20156;BME280;10238;49.556;10.956;2023-06-04T14:26:30;98307.50;;;33.79;30.99
20156;BME280;10238;49.556;10.956;2023-06-04T14:29:18;98305.03;;;33.32;32.10
20156;BME280;10238;49.556;10.956;2023-06-04T14:32:06;98302.78;;;34.34;30.85
20156;BME280;10238;49.556;10.956;2023-06-04T14:34:56;98294.94;;;34.76;30.78
20156;BME280;10238;49.556;10.956;2023-06-04T14:37:43;98290.81;;;34.87;29.43
20156;BME280;10238;49.556;10.956;2023-06-04T14:40:31;98294.78;;;34.95;29.70
20156;BME280;10238;49.556;10.956;2023-06-04T14:43:22;98285.44;;;35.05;29.74